createdAt,value
2019-05-26T00:02:00.217Z,84.02
2019-05-26T00:04:28.744Z,85.14
2019-05-26T00:06:57.189Z,85.78
2019-05-26T00:09:25.635Z,87.61
2019-05-26T00:11:54.085Z,88.36
2019-05-26T00:14:22.525Z,88.30
2019-05-26T00:16:50.976Z,88.62
2019-05-26T00:19:19.523Z,88.88
2019-05-26T00:21:47.969Z,89.82
2019-05-26T00:24:16.409Z,90.01
2019-05-26T00:26:44.854Z,90.76
2019-05-26T00:29:13.287Z,90.54
2019-05-26T00:31:41.766Z,90.49
2019-05-26T00:34:10.218Z,90.84
2019-05-26T00:36:38.757Z,90.66
2019-05-26T00:39:07.493Z,90.87
2019-05-26T00:41:35.934Z,90.90
2019-05-26T00:44:05.665Z,90.81
2019-05-26T00:46:34.125Z,91.49
2019-05-26T00:49:06.087Z,91.46
2019-05-26T00:51:34.892Z,91.35
2019-05-26T00:54:04.664Z,91.23
2019-05-26T00:56:33.392Z,90.96
2019-05-26T00:59:01.904Z,91.06
2019-05-26T01:01:30.385Z,90.78
2019-05-26T01:03:58.841Z,90.64
2019-05-26T01:06:27.306Z,90.88
2019-05-26T01:08:55.731Z,91.13
2019-05-26T01:11:24.196Z,91.10
2019-05-26T01:13:52.622Z,91.29
2019-05-26T01:16:21.089Z,91.22
2019-05-26T01:19:01.284Z,91.29
2019-05-26T01:21:30.001Z,91.26
2019-05-26T01:24:17.813Z,91.48
2019-05-26T01:26:46.292Z,91.74
2019-05-26T01:29:14.737Z,91.57
2019-05-26T01:31:43.199Z,91.43
2019-05-26T01:34:11.644Z,91.65
2019-05-26T01:36:59.397Z,91.60
2019-05-26T01:39:27.854Z,91.68
2019-05-26T01:41:56.317Z,91.54
2019-05-26T01:44:24.769Z,92.25
2019-05-26T01:46:53.294Z,92.38
2019-05-26T01:49:21.745Z,92.85
2019-05-26T01:51:50.215Z,92.59
2019-05-26T01:54:18.753Z,92.48
2019-05-26T01:56:47.186Z,92.61
2019-05-26T01:59:15.615Z,92.36
2019-05-26T02:01:44.406Z,92.57
2019-05-26T02:04:12.855Z,92.25
2019-05-26T02:06:41.323Z,91.84
2019-05-26T02:09:09.777Z,91.73
2019-05-26T02:11:38.248Z,91.42
2019-05-26T02:14:06.685Z,91.03
2019-05-26T02:16:54.453Z,90.92
2019-05-26T02:19:22.903Z,90.29
2019-05-26T02:22:10.706Z,90.16
2019-05-26T02:24:51.905Z,89.94
2019-05-26T02:27:20.393Z,89.82
2019-05-26T02:29:48.841Z,89.87
2019-05-26T02:32:17.358Z,89.88
2019-05-26T02:34:45.879Z,89.78
2019-05-26T02:37:14.345Z,89.73
2019-05-26T02:39:45.823Z,89.94
2019-05-26T02:42:14.281Z,89.92
2019-05-26T02:44:42.729Z,90.17
2019-05-26T02:47:11.187Z,90.01
2019-05-26T02:49:39.629Z,90.23
2019-05-26T02:52:08.078Z,90.55
2019-05-26T02:54:37.759Z,90.36
2019-05-26T02:57:09.638Z,90.17
2019-05-26T02:59:41.389Z,90.07
2019-05-26T03:02:09.863Z,90.32
2019-05-26T03:04:38.338Z,91.75
2019-05-26T03:07:06.804Z,94.88
2019-05-26T03:09:35.249Z,100.27
2019-05-26T03:12:03.726Z,101.00
2019-05-26T03:14:33.707Z,101.29
2019-05-26T03:17:02.171Z,101.46
2019-05-26T03:19:31.130Z,101.61
2019-05-26T03:21:59.605Z,101.87
2019-05-26T03:24:28.690Z,101.98
2019-05-26T03:26:57.264Z,102.10
2019-05-26T03:29:25.728Z,102.23
2019-05-26T03:31:54.286Z,102.26
2019-05-26T03:34:22.722Z,102.31
2019-05-26T03:36:51.166Z,102.36
2019-05-26T03:39:19.644Z,102.39
2019-05-26T03:41:48.095Z,102.36
2019-05-26T03:44:16.565Z,102.42
2019-05-26T03:46:45.048Z,102.43
2019-05-26T03:49:13.504Z,102.46
2019-05-26T03:51:41.941Z,102.48
2019-05-26T03:54:10.422Z,102.46
2019-05-26T03:56:38.865Z,102.49
2019-05-26T03:59:07.370Z,102.50
2019-05-26T04:01:35.837Z,102.57
2019-05-26T04:04:04.288Z,102.63
2019-05-26T04:06:32.740Z,102.66
2019-05-26T04:09:01.203Z,102.73
2019-05-26T04:11:29.645Z,102.74
2019-05-26T04:13:58.118Z,102.72
2019-05-26T04:16:26.582Z,102.80
2019-05-26T04:18:55.020Z,102.81
2019-05-26T04:21:23.476Z,102.80
2019-05-26T04:23:51.937Z,102.76
2019-05-26T04:26:20.376Z,102.81
2019-05-26T04:28:48.847Z,102.89
2019-05-26T04:31:17.311Z,102.84
2019-05-26T04:33:45.776Z,102.85
2019-05-26T04:36:14.225Z,102.86
2019-05-26T04:38:42.669Z,102.92
2019-05-26T04:41:11.158Z,102.91
2019-05-26T04:43:39.615Z,102.88
2019-05-26T04:46:08.055Z,102.90
2019-05-26T04:48:36.520Z,102.84
2019-05-26T04:51:05.052Z,102.83
2019-05-26T04:53:33.490Z,102.86
2019-05-26T04:56:01.959Z,102.82
2019-05-26T04:58:30.417Z,102.89
2019-05-26T05:00:58.877Z,102.94
2019-05-26T05:03:27.322Z,102.90
2019-05-26T05:05:55.779Z,102.84
2019-05-26T05:08:24.277Z,102.89
2019-05-26T05:10:52.707Z,102.95
2019-05-26T05:13:24.794Z,102.93
2019-05-26T05:15:51.486Z,102.91
2019-05-26T05:18:19.965Z,102.91
2019-05-26T05:20:48.439Z,102.88
2019-05-26T05:23:16.881Z,102.88
2019-05-26T05:25:45.333Z,102.89
2019-05-26T05:28:13.776Z,102.86
2019-05-26T05:30:42.256Z,102.90
2019-05-26T05:33:10.705Z,102.75
2019-05-26T05:35:39.184Z,102.76
2019-05-26T05:38:07.636Z,102.67
2019-05-26T05:40:36.077Z,102.45
2019-05-26T05:43:04.532Z,102.18
2019-05-26T05:45:32.985Z,100.38
2019-05-26T05:48:01.433Z,97.14
2019-05-26T05:50:29.890Z,96.54
2019-05-26T05:52:58.340Z,95.61
2019-05-26T05:55:27.235Z,95.09
2019-05-26T05:57:55.744Z,95.15
2019-05-26T06:00:26.612Z,94.59
2019-05-26T06:02:55.317Z,93.98
2019-05-26T06:05:23.801Z,94.60
2019-05-26T06:07:52.256Z,93.55
2019-05-26T06:10:23.116Z,94.16
2019-05-26T06:12:51.570Z,93.83
2019-05-26T06:15:21.360Z,93.17
2019-05-26T06:17:49.940Z,93.02
2019-05-26T06:20:18.401Z,92.08
2019-05-26T06:22:46.849Z,91.48
2019-05-26T06:25:15.305Z,89.35
2019-05-26T06:27:44.504Z,90.01
2019-05-26T06:30:13.098Z,89.75
2019-05-26T06:32:41.540Z,88.14
2019-05-26T06:35:10.004Z,88.51
2019-05-26T06:37:38.579Z,84.48
2019-05-26T06:40:07.111Z,84.47
2019-05-26T06:42:35.537Z,83.95
2019-05-26T06:45:04.825Z,84.50
2019-05-26T06:47:33.280Z,81.22
2019-05-26T06:50:01.751Z,82.54
2019-05-26T06:52:30.560Z,79.16
2019-05-26T06:54:59.357Z,80.74
2019-05-26T06:57:27.786Z,79.96
2019-05-26T06:59:56.242Z,79.74
2019-05-26T07:02:24.668Z,79.26
2019-05-26T07:04:53.110Z,78.74
2019-05-26T07:07:24.621Z,77.12
2019-05-26T07:09:53.178Z,77.47
2019-05-26T07:12:21.670Z,78.18
2019-05-26T07:14:50.153Z,75.66
2019-05-26T07:17:20.668Z,72.60
2019-05-26T07:19:48.764Z,70.45
2019-05-26T07:22:17.226Z,72.79
2019-05-26T07:24:45.678Z,72.55
2019-05-26T07:27:14.129Z,73.07
2019-05-26T07:29:42.838Z,73.17
2019-05-26T07:32:11.283Z,72.56
2019-05-26T07:34:40.039Z,72.90
2019-05-26T07:37:08.466Z,71.95
2019-05-26T07:39:36.909Z,71.28
2019-05-26T07:42:10.503Z,71.25
2019-05-26T07:44:35.521Z,70.82
2019-05-26T07:47:03.965Z,71.19
2019-05-26T07:49:32.400Z,70.25
2019-05-26T07:52:00.846Z,68.79
2019-05-26T07:54:29.576Z,67.71
2019-05-26T07:56:58.021Z,67.10
2019-05-26T07:59:26.442Z,66.70
2019-05-26T08:01:54.931Z,65.60
2019-05-26T08:04:23.378Z,65.01
2019-05-26T08:06:51.864Z,64.16
2019-05-26T08:09:20.306Z,62.95
2019-05-26T08:11:48.833Z,63.00
2019-05-26T08:14:17.452Z,62.82
2019-05-26T08:16:45.892Z,61.76
2019-05-26T08:19:14.327Z,60.60
2019-05-26T08:21:42.769Z,60.92
2019-05-26T08:24:11.221Z,59.99
2019-05-26T08:26:39.633Z,58.61
2019-05-26T08:29:08.080Z,59.20
2019-05-26T08:31:36.512Z,59.53
2019-05-26T08:34:04.967Z,60.58
2019-05-26T08:36:33.389Z,61.79
2019-05-26T08:39:01.942Z,60.37
2019-05-26T08:41:30.727Z,61.69
2019-05-26T08:43:59.161Z,61.37
2019-05-26T08:46:27.588Z,60.93
2019-05-26T08:48:56.086Z,59.07
2019-05-26T08:51:24.504Z,59.15
2019-05-26T08:53:52.929Z,56.95
2019-05-26T08:56:21.392Z,57.47
2019-05-26T08:58:49.830Z,58.21
2019-05-26T09:01:18.603Z,60.85
2019-05-26T09:03:47.292Z,60.32
2019-05-26T09:06:16.005Z,61.62
2019-05-26T09:13:34.977Z,61.34
2019-05-26T09:16:03.434Z,64.46
2019-05-26T09:18:31.882Z,64.01
2019-05-26T09:21:00.412Z,63.96
2019-05-26T09:23:28.856Z,63.03
2019-05-26T09:25:57.302Z,63.93
2019-05-26T09:28:25.758Z,63.65
2019-05-26T09:30:54.222Z,63.04
2019-05-26T09:33:22.744Z,63.36
2019-05-26T09:35:51.229Z,63.19
2019-05-26T09:38:19.686Z,63.31
2019-05-26T09:40:48.124Z,62.29
2019-05-26T09:43:16.915Z,62.88
2019-05-26T09:45:45.476Z,62.10
2019-05-26T09:48:14.242Z,62.68
2019-05-26T09:50:42.701Z,61.66
2019-05-26T09:53:11.523Z,61.86
2019-05-26T09:55:40.008Z,61.52
2019-05-26T09:58:08.445Z,61.74
2019-05-26T10:00:36.909Z,61.15
2019-05-26T10:03:05.672Z,60.91
2019-05-26T10:05:34.125Z,59.76
2019-05-26T10:08:02.838Z,59.56
2019-05-26T10:10:31.306Z,59.45
2019-05-26T10:12:59.756Z,60.07
2019-05-26T10:15:28.209Z,60.17
2019-05-26T10:17:56.662Z,60.10
2019-05-26T10:20:25.110Z,59.01
2019-05-26T10:22:53.815Z,57.76
2019-05-26T10:25:22.253Z,58.00
2019-05-26T10:27:50.757Z,58.62
2019-05-26T10:30:19.208Z,58.88
2019-05-26T10:32:47.746Z,59.53
2019-05-26T10:35:16.172Z,60.14
2019-05-26T10:37:44.664Z,61.01
2019-05-26T10:40:13.186Z,59.43
2019-05-26T10:42:41.646Z,58.37
2019-05-26T10:45:10.113Z,58.68
2019-05-26T10:47:38.572Z,57.73
2019-05-26T10:50:07.716Z,58.07
2019-05-26T10:52:36.188Z,58.88
2019-05-26T10:55:04.722Z,58.67
2019-05-26T10:57:33.164Z,57.76
2019-05-26T11:00:01.682Z,58.71
2019-05-26T11:02:30.337Z,58.88
2019-05-26T11:04:58.809Z,58.54
2019-05-26T11:07:27.312Z,58.96
2019-05-26T11:09:55.749Z,59.34
2019-05-26T11:12:24.198Z,59.18
2019-05-26T11:14:53.537Z,60.55
2019-05-26T11:17:21.993Z,58.88
2019-05-26T11:19:50.490Z,57.66
2019-05-26T11:22:19.077Z,58.33
2019-05-26T11:24:47.529Z,59.10
2019-05-26T11:27:16.050Z,59.04
2019-05-26T11:29:44.509Z,58.85
2019-05-26T11:32:12.957Z,59.43
2019-05-26T11:34:41.405Z,59.32
2019-05-26T11:37:10.205Z,59.65
2019-05-26T11:39:38.735Z,59.26
2019-05-26T11:42:13.489Z,57.73
2019-05-26T11:44:37.617Z,58.48
2019-05-26T11:47:06.077Z,58.95
2019-05-26T11:49:34.562Z,58.27
2019-05-26T11:52:03.287Z,58.84
2019-05-26T11:54:34.414Z,59.11
2019-05-26T11:57:01.938Z,58.78
2019-05-26T11:59:30.400Z,59.07
2019-05-26T12:01:58.842Z,60.30
2019-05-26T12:04:27.287Z,59.72
2019-05-26T12:06:55.745Z,59.20
2019-05-26T12:09:24.197Z,58.27
2019-05-26T12:11:52.672Z,58.57
2019-05-26T12:14:34.305Z,57.66
2019-05-26T12:16:51.532Z,57.99
2019-05-26T12:19:20.009Z,57.72
2019-05-26T12:21:48.461Z,57.32
2019-05-26T12:24:16.899Z,57.09
2019-05-26T12:26:45.413Z,56.34
2019-05-26T12:29:13.906Z,56.34
2019-05-26T12:31:42.421Z,57.36
2019-05-26T12:34:10.866Z,56.67
2019-05-26T12:36:39.629Z,56.50
2019-05-26T12:39:08.754Z,56.37
2019-05-26T12:41:37.570Z,55.02
2019-05-26T12:44:06.160Z,55.76
2019-05-26T12:46:34.617Z,55.65
2019-05-26T12:49:03.197Z,56.59
2019-05-26T12:51:31.663Z,56.36
2019-05-26T12:54:00.387Z,55.37
2019-05-26T12:56:28.889Z,54.60
2019-05-26T12:58:57.323Z,53.90
2019-05-26T13:01:25.792Z,54.69
2019-05-26T13:03:54.336Z,53.65
2019-05-26T13:06:22.785Z,53.64
2019-05-26T13:08:51.228Z,53.74
2019-05-26T13:11:22.674Z,53.71
2019-05-26T13:13:49.967Z,54.56
2019-05-26T13:16:20.544Z,54.41
2019-05-26T13:18:49.038Z,54.67
2019-05-26T13:21:17.500Z,54.86
2019-05-26T13:23:46.193Z,54.74
2019-05-26T13:26:21.873Z,54.28
2019-05-26T13:28:53.533Z,54.82
2019-05-26T13:31:21.974Z,53.73
2019-05-26T13:33:50.754Z,52.92
2019-05-26T13:36:19.215Z,54.20
2019-05-26T13:38:47.645Z,53.38
2019-05-26T13:41:16.072Z,53.09
2019-05-26T13:43:44.508Z,53.50
2019-05-26T13:46:12.965Z,55.10
2019-05-26T13:48:41.437Z,54.60
2019-05-26T13:51:09.911Z,52.19
2019-05-26T13:53:38.363Z,53.16
2019-05-26T13:56:06.806Z,51.80
2019-05-26T13:58:35.257Z,52.61
2019-05-26T14:01:03.708Z,51.67
2019-05-26T14:03:32.153Z,51.50
2019-05-26T14:06:00.628Z,51.76
2019-05-26T14:08:29.055Z,51.09
2019-05-26T14:10:57.510Z,50.74
2019-05-26T14:13:25.941Z,50.90
2019-05-26T14:15:55.352Z,50.86
2019-05-26T14:18:23.805Z,51.83
2019-05-26T14:20:52.270Z,51.54
2019-05-26T14:23:20.773Z,51.95
2019-05-26T14:25:49.237Z,52.60
2019-05-26T14:28:17.660Z,53.35
2019-05-26T14:30:46.405Z,53.25
2019-05-26T14:33:14.852Z,52.48
2019-05-26T14:35:43.324Z,52.63
2019-05-26T14:38:11.784Z,52.95
2019-05-26T14:40:40.207Z,52.77
2019-05-26T14:43:08.629Z,52.15
2019-05-26T14:45:51.954Z,51.94
2019-05-26T14:48:07.209Z,51.86
2019-05-26T14:50:35.654Z,53.39
2019-05-26T14:53:04.084Z,52.55
2019-05-26T14:55:32.508Z,53.32
2019-05-26T14:58:14.279Z,53.15
2019-05-26T15:00:31.404Z,52.22
2019-05-26T15:02:59.849Z,52.33
2019-05-26T15:05:28.716Z,52.45
2019-05-26T15:07:57.139Z,52.50
2019-05-26T15:10:25.579Z,51.43
2019-05-26T15:12:54.100Z,51.75
2019-05-26T15:15:22.585Z,52.83
2019-05-26T15:17:51.429Z,52.62
2019-05-26T15:20:19.923Z,52.18
2019-05-26T15:22:48.462Z,51.66
2019-05-26T15:25:16.901Z,50.16
2019-05-26T15:27:46.635Z,49.70
2019-05-26T15:30:15.406Z,49.77
2019-05-26T15:32:43.837Z,49.93
2019-05-26T15:35:12.375Z,49.58
2019-05-26T15:37:40.905Z,49.01
2019-05-26T15:40:09.930Z,48.77
2019-05-26T15:42:38.375Z,48.54
2019-05-26T15:45:07.142Z,47.50
2019-05-26T15:47:35.602Z,48.42
2019-05-26T15:50:04.604Z,46.46
2019-05-26T15:52:33.042Z,46.94
2019-05-26T15:55:01.531Z,47.68
2019-05-26T15:57:29.949Z,47.30
2019-05-26T15:59:58.414Z,46.94
2019-05-26T16:02:26.845Z,46.40
2019-05-26T16:04:58.695Z,48.62
2019-05-26T16:07:25.901Z,47.10
2019-05-26T16:09:54.347Z,48.65
2019-05-26T16:12:22.916Z,50.23
2019-05-26T16:14:51.382Z,51.62
2019-05-26T16:17:20.245Z,53.34
2019-05-26T16:19:48.684Z,54.23
2019-05-26T16:22:17.149Z,54.76
2019-05-26T16:24:45.624Z,56.02
2019-05-26T16:27:19.222Z,56.63
2019-05-26T16:29:46.716Z,57.50
2019-05-26T16:32:18.643Z,57.83
2019-05-26T16:34:45.305Z,58.21
2019-05-26T16:37:13.896Z,59.50
2019-05-26T16:39:42.330Z,59.25
2019-05-26T16:42:10.940Z,59.93
2019-05-26T16:44:39.795Z,59.72
2019-05-26T16:47:08.246Z,60.07
2019-05-26T16:49:36.693Z,59.69
2019-05-26T16:52:05.312Z,59.87
2019-05-26T16:54:33.748Z,60.03
2019-05-26T16:57:05.131Z,60.88
2019-05-26T16:59:34.268Z,62.08
2019-05-26T17:02:02.799Z,62.49
2019-05-26T17:04:31.241Z,62.60
2019-05-26T17:06:59.746Z,62.90
2019-05-26T17:09:28.327Z,63.12
2019-05-26T17:11:57.127Z,63.26
2019-05-26T17:14:25.785Z,63.13
2019-05-26T17:16:54.228Z,63.49
2019-05-26T17:19:22.712Z,63.76
2019-05-26T17:21:51.338Z,63.71
2019-05-26T17:24:20.120Z,64.06
2019-05-26T17:26:48.554Z,63.24
2019-05-26T17:29:17.027Z,63.54
2019-05-26T17:31:45.523Z,63.75
2019-05-26T17:34:13.965Z,64.00
2019-05-26T17:36:42.413Z,65.25
2019-05-26T17:39:10.889Z,65.06
2019-05-26T17:41:39.344Z,65.28
2019-05-26T17:44:07.880Z,65.77
2019-05-26T17:46:36.368Z,66.15
2019-05-26T17:49:04.806Z,66.46
2019-05-26T17:51:33.339Z,66.66
2019-05-26T17:54:01.874Z,67.20
2019-05-26T17:56:30.328Z,67.08
2019-05-26T17:58:58.782Z,67.29
2019-05-26T18:01:27.228Z,67.58
2019-05-26T18:03:55.653Z,67.18
2019-05-26T18:06:24.112Z,67.32
2019-05-26T18:08:52.573Z,67.60
2019-05-26T18:11:21.318Z,68.60
2019-05-26T18:13:49.760Z,69.88
2019-05-26T18:16:18.291Z,71.00
2019-05-26T18:18:46.837Z,72.40
2019-05-26T18:21:15.306Z,73.07
2019-05-26T18:23:55.526Z,73.80
2019-05-26T18:26:24.028Z,74.03
2019-05-26T18:28:52.492Z,74.61
2019-05-26T18:31:20.995Z,74.93
2019-05-26T18:33:49.474Z,76.36
2019-05-26T18:36:17.924Z,78.07
2019-05-26T18:38:46.382Z,80.20
2019-05-26T18:41:14.836Z,81.12
2019-05-26T18:43:43.586Z,82.02
2019-05-26T18:46:12.094Z,83.43
2019-05-26T18:48:40.576Z,84.19
2019-05-26T18:51:09.056Z,84.56
2019-05-26T18:53:37.531Z,84.77
2019-05-26T18:56:05.990Z,84.78
2019-05-26T18:58:34.450Z,85.24
2019-05-26T19:01:02.913Z,84.85
2019-05-26T19:03:31.362Z,84.70
2019-05-26T19:05:59.830Z,85.19
2019-05-26T19:08:28.309Z,85.02
2019-05-26T19:10:56.798Z,85.05
2019-05-26T19:13:25.280Z,85.40
2019-05-26T19:15:53.775Z,85.51
2019-05-26T19:18:22.614Z,86.84
2019-05-26T19:20:51.145Z,87.58
2019-05-26T19:23:19.602Z,88.19
2019-05-26T19:25:48.130Z,88.25
2019-05-26T19:28:16.636Z,88.29
2019-05-26T19:30:45.805Z,88.94
2019-05-26T19:33:14.654Z,89.13
2019-05-26T19:35:43.128Z,89.76
2019-05-26T19:38:11.663Z,90.32
2019-05-26T19:40:40.123Z,90.63
2019-05-26T19:43:08.553Z,91.13
2019-05-26T19:45:37.025Z,91.53
2019-05-26T19:48:05.561Z,91.93
2019-05-26T19:50:34.248Z,92.34
2019-05-26T19:53:02.934Z,92.61
2019-05-26T19:55:31.373Z,92.93
2019-05-26T19:57:59.819Z,93.03
2019-05-26T20:00:28.337Z,93.20
2019-05-26T20:02:56.785Z,92.82
2019-05-26T20:05:25.259Z,92.98
2019-05-26T20:07:53.786Z,92.95
2019-05-26T20:10:22.533Z,93.08
2019-05-26T20:12:51.215Z,93.03
2019-05-26T20:15:19.793Z,92.97
2019-05-26T20:17:48.274Z,93.05
2019-05-26T20:20:16.769Z,93.22
2019-05-26T20:22:45.232Z,93.19
2019-05-26T20:25:14.210Z,93.10
2019-05-26T20:27:42.697Z,93.09
2019-05-26T20:30:11.497Z,93.24
2019-05-26T20:32:40.353Z,93.22
2019-05-26T20:35:09.491Z,93.12
2019-05-26T20:37:37.956Z,93.24
2019-05-26T20:40:06.552Z,93.19
2019-05-26T20:42:35.167Z,93.05
2019-05-26T20:45:03.649Z,93.30
2019-05-26T20:47:32.103Z,93.22
2019-05-26T20:50:00.729Z,93.19
2019-05-26T20:52:29.210Z,93.37
2019-05-26T20:54:57.863Z,93.22
2019-05-26T20:57:26.378Z,93.41
2019-05-26T20:59:54.837Z,93.36
2019-05-26T21:02:23.304Z,93.30
2019-05-26T21:04:51.781Z,93.36
2019-05-26T21:07:20.320Z,93.56
2019-05-26T21:09:48.774Z,93.54
2019-05-26T21:12:17.450Z,93.38
2019-05-26T21:14:45.910Z,93.35
2019-05-26T21:17:14.366Z,93.29
2019-05-26T21:19:54.787Z,93.27
2019-05-26T21:22:23.562Z,93.29
2019-05-26T21:24:52.101Z,93.05
2019-05-26T21:27:23.658Z,93.22
2019-05-26T21:29:52.228Z,93.08
2019-05-26T21:32:20.744Z,92.92
2019-05-26T21:34:49.197Z,93.02
2019-05-26T21:37:17.688Z,92.93
2019-05-26T21:39:46.248Z,92.96
2019-05-26T21:42:16.105Z,93.03
2019-05-26T21:44:44.648Z,93.02
2019-05-26T21:47:13.140Z,93.17
2019-05-26T21:49:41.598Z,93.13
2019-05-26T21:52:10.059Z,93.15
2019-05-26T21:54:41.214Z,93.19
2019-05-26T21:57:09.002Z,93.42
2019-05-26T21:59:37.492Z,93.44
2019-05-26T22:02:06.029Z,93.28
2019-05-26T22:04:34.505Z,93.17
2019-05-26T22:07:03.151Z,93.08
2019-05-26T22:09:31.842Z,93.16
2019-05-26T22:12:00.288Z,93.00
2019-05-26T22:14:28.780Z,92.75
2019-05-26T22:16:57.232Z,92.80
2019-05-26T22:19:25.688Z,92.56
2019-05-26T22:21:54.129Z,92.66
2019-05-26T22:24:22.590Z,92.74
2019-05-26T22:26:51.131Z,92.94
2019-05-26T22:29:19.728Z,93.06
2019-05-26T22:31:48.521Z,93.02
2019-05-26T22:34:16.996Z,93.11
2019-05-26T22:36:45.446Z,93.16
2019-05-26T22:39:13.877Z,93.03
2019-05-26T22:41:42.314Z,92.74
2019-05-26T22:44:10.766Z,92.58
2019-05-26T22:46:39.192Z,92.34
2019-05-26T22:49:07.945Z,92.58
2019-05-26T22:51:36.408Z,92.58
2019-05-26T22:54:04.861Z,92.77
2019-05-26T22:56:33.311Z,92.54
2019-05-26T22:59:01.766Z,92.58
2019-05-26T23:01:30.216Z,92.62
2019-05-26T23:03:58.650Z,92.79
2019-05-26T23:06:27.110Z,92.64
2019-05-26T23:08:55.558Z,92.63
2019-05-26T23:11:43.337Z,92.49
2019-05-26T23:14:31.118Z,92.50
2019-05-26T23:16:59.573Z,92.03
2019-05-26T23:19:28.015Z,92.17
2019-05-26T23:21:56.453Z,92.12
2019-05-26T23:24:25.243Z,92.05
2019-05-26T23:26:53.741Z,91.46
2019-05-26T23:29:22.257Z,91.29
2019-05-26T23:31:50.817Z,91.06
2019-05-26T23:34:19.337Z,90.42
2019-05-26T23:36:47.817Z,90.10
2019-05-26T23:39:16.346Z,89.75
2019-05-26T23:41:44.848Z,89.55
2019-05-26T23:44:13.329Z,89.16
2019-05-26T23:46:41.836Z,88.72
2019-05-26T23:49:10.627Z,88.64
2019-05-26T23:51:39.068Z,88.32
2019-05-26T23:54:07.532Z,87.87
2019-05-26T23:56:35.965Z,87.60
2019-05-26T23:59:04.420Z,87.35
